SBPA/POA METAR and TAF weather

Enter ICAO airport designator
Station Type Date Time Source
SBPA METAR 2019/08/25 13:00 UTC NOAA

SBPA 251300Z 09005KT CAVOK 18/09 Q1025


Station Type Date Time Source
SBPA Decoded METAR 2019/08/25 13:00 UTC NOAA

Station name not available
Aug 25, 2019 - 09:00 AM EDT / 2019.08.25 1300 UTC
Wind: from the E (090 degrees) at 6 MPH (5 KT):0
Visibility: greater than 7 mile(s):0
Temperature: 64 F (18 C)
Dew Point: 48 F (9 C)
Relative Humidity: 55%
Pressure (altimeter): 30.27 in. Hg (1025 hPa)
ob: SBPA 251300Z 09005KT CAVOK 18/09 Q1025
cycle: 13

Station Type Date Time Source
SBPA TAF 2019/08/25 12:54 UTC NOAA

TAF SBPA 250915Z 2512/2612 11007KT CAVOK TX25/2518Z TN12/2609Z
BECMG 2516/2518 11012KT
BECMG 2602/2604 09005KT
RMK PDW

Example: see airport list